PUA1497 SACO-SULS
Flight info
| Callsign | PUA1497 |
|---|---|
| Flight time | N/A |
| Altitude | 9000 |
| Route | GENAS W6 PAR B555 NIMBO LS007-RNPZ/08 |
| Aircraft | PA34/L-SDFGRY/S |
Departure
| Time | N/A |
|---|---|
| Airport | Ingeniero Aeronáutico Ambrosio L.V. Taravella International Airport (SACO) |
Arrival
| Time | 2026-05-04 13:39 |
|---|---|
| Airport | Capitan Corbeta CA Curbelo International Airport (SULS) |
| Time | Latitude | Longitude | Altitude | Speed | Heading |
|---|---|---|---|---|---|
| 2026-05-04 13:06 | -34.15581 | -56.66237 | 9037 ft | 181 kts | 126° |
| 2026-05-04 13:07 | -34.16288 | -56.64988 | 9033 ft | 180 kts | 126° |
| 2026-05-04 13:07 | -34.16995 | -56.63741 | 9035 ft | 181 kts | 126° |
| 2026-05-04 13:07 | -34.17704 | -56.62486 | 9037 ft | 181 kts | 126° |
| 2026-05-04 13:07 | -34.18415 | -56.61232 | 9035 ft | 181 kts | 126° |
| 2026-05-04 13:08 | -34.19127 | -56.59974 | 9042 ft | 182 kts | 126° |
| 2026-05-04 13:08 | -34.19840 | -56.58709 | 9042 ft | 182 kts | 126° |
| 2026-05-04 13:08 | -34.20555 | -56.57446 | 9045 ft | 182 kts | 126° |
| 2026-05-04 13:08 | -34.21269 | -56.56180 | 9046 ft | 183 kts | 126° |
| 2026-05-04 13:09 | -34.21985 | -56.54908 | 9041 ft | 182 kts | 125° |
| 2026-05-04 13:09 | -34.22700 | -56.53646 | 9041 ft | 182 kts | 126° |
| 2026-05-04 13:09 | -34.23405 | -56.52397 | 9041 ft | 183 kts | 126° |
| 2026-05-04 13:09 | -34.24122 | -56.51126 | 9041 ft | 183 kts | 126° |
| 2026-05-04 13:10 | -34.24835 | -56.49862 | 9040 ft | 181 kts | 126° |
| 2026-05-04 13:10 | -34.25547 | -56.48598 | 9042 ft | 182 kts | 126° |
| 2026-05-04 13:10 | -34.26259 | -56.47335 | 9034 ft | 182 kts | 126° |
| 2026-05-04 13:10 | -34.26972 | -56.46070 | 9034 ft | 181 kts | 126° |
| 2026-05-04 13:11 | -34.27682 | -56.44811 | 9035 ft | 181 kts | 126° |
| 2026-05-04 13:11 | -34.28394 | -56.43544 | 9042 ft | 183 kts | 126° |
| 2026-05-04 13:11 | -34.29111 | -56.42275 | 9043 ft | 183 kts | 126° |
| 2026-05-04 13:11 | -34.29828 | -56.40999 | 9040 ft | 183 kts | 126° |
| 2026-05-04 13:12 | -34.30542 | -56.39728 | 9037 ft | 182 kts | 126° |
| 2026-05-04 13:12 | -34.31253 | -56.38462 | 9031 ft | 182 kts | 126° |
| 2026-05-04 13:12 | -34.31966 | -56.37197 | 9037 ft | 182 kts | 126° |
| 2026-05-04 13:12 | -34.32677 | -56.35926 | 9040 ft | 182 kts | 125° |
| 2026-05-04 13:13 | -34.33383 | -56.34671 | 9032 ft | 183 kts | 126° |
| 2026-05-04 13:13 | -34.34106 | -56.33385 | 9031 ft | 182 kts | 126° |
| 2026-05-04 13:13 | -34.34815 | -56.32123 | 9029 ft | 181 kts | 126° |
| 2026-05-04 13:13 | -34.35524 | -56.30857 | 9030 ft | 183 kts | 126° |
| 2026-05-04 13:14 | -34.36226 | -56.29604 | 9030 ft | 182 kts | 126° |
| 2026-05-04 13:14 | -34.36940 | -56.28328 | 9036 ft | 183 kts | 126° |
| 2026-05-04 13:14 | -34.37656 | -56.27055 | 9037 ft | 183 kts | 126° |
| 2026-05-04 13:14 | -34.38374 | -56.25774 | 9040 ft | 184 kts | 126° |
| 2026-05-04 13:15 | -34.39091 | -56.24491 | 9037 ft | 185 kts | 126° |
| 2026-05-04 13:15 | -34.39810 | -56.23207 | 9038 ft | 185 kts | 125° |
| 2026-05-04 13:15 | -34.40527 | -56.21926 | 9032 ft | 184 kts | 126° |
| 2026-05-04 13:15 | -34.41243 | -56.20647 | 9032 ft | 183 kts | 126° |
| 2026-05-04 13:16 | -34.41715 | -56.19803 | 9032 ft | 183 kts | 126° |
| 2026-05-04 13:16 | -34.42479 | -56.18435 | 9029 ft | 183 kts | 126° |
| 2026-05-04 13:16 | -34.43190 | -56.17164 | 9028 ft | 182 kts | 126° |
| 2026-05-04 13:16 | -34.43900 | -56.15893 | 9030 ft | 182 kts | 126° |
| 2026-05-04 13:17 | -34.44609 | -56.14626 | 9029 ft | 182 kts | 126° |
| 2026-05-04 13:17 | -34.45319 | -56.13350 | 9030 ft | 183 kts | 126° |
| 2026-05-04 13:17 | -34.46034 | -56.12073 | 9031 ft | 183 kts | 126° |
| 2026-05-04 13:17 | -34.46747 | -56.10797 | 9032 ft | 182 kts | 126° |
| 2026-05-04 13:18 | -34.47447 | -56.09537 | 9032 ft | 182 kts | 126° |
| 2026-05-04 13:18 | -34.48157 | -56.08263 | 9030 ft | 182 kts | 126° |
| 2026-05-04 13:18 | -34.48868 | -56.06987 | 9027 ft | 182 kts | 126° |
| 2026-05-04 13:18 | -34.49574 | -56.05719 | 9024 ft | 181 kts | 126° |
| 2026-05-04 13:19 | -34.50280 | -56.04450 | 9022 ft | 181 kts | 126° |
| 2026-05-04 13:19 | -34.50985 | -56.03187 | 9025 ft | 181 kts | 126° |
| 2026-05-04 13:19 | -34.51693 | -56.01917 | 9025 ft | 182 kts | 126° |
| 2026-05-04 13:19 | -34.52399 | -56.00647 | 9023 ft | 182 kts | 126° |
| 2026-05-04 13:20 | -34.53105 | -55.99377 | 9025 ft | 181 kts | 126° |
| 2026-05-04 13:20 | -34.53812 | -55.98105 | 9025 ft | 182 kts | 126° |
| 2026-05-04 13:20 | -34.54519 | -55.96835 | 9026 ft | 182 kts | 126° |
| 2026-05-04 13:20 | -34.55228 | -55.95557 | 9023 ft | 182 kts | 126° |
| 2026-05-04 13:21 | -34.55933 | -55.94290 | 9028 ft | 182 kts | 126° |
| 2026-05-04 13:21 | -34.56641 | -55.93013 | 9023 ft | 182 kts | 126° |
| 2026-05-04 13:21 | -34.57355 | -55.91726 | 8899 ft | 184 kts | 126° |
| 2026-05-04 13:21 | -34.58065 | -55.90446 | 8776 ft | 182 kts | 126° |
| 2026-05-04 13:22 | -34.58769 | -55.89174 | 8641 ft | 180 kts | 126° |
| 2026-05-04 13:22 | -34.59467 | -55.87918 | 8509 ft | 180 kts | 126° |
| 2026-05-04 13:22 | -34.60169 | -55.86652 | 8384 ft | 181 kts | 126° |
| 2026-05-04 13:22 | -34.60869 | -55.85388 | 8244 ft | 181 kts | 125° |
| 2026-05-04 13:23 | -34.61574 | -55.84112 | 8097 ft | 182 kts | 126° |
| 2026-05-04 13:23 | -34.62282 | -55.82834 | 7951 ft | 182 kts | 125° |
| 2026-05-04 13:23 | -34.62986 | -55.81565 | 7805 ft | 181 kts | 125° |
| 2026-05-04 13:23 | -34.63693 | -55.80289 | 7658 ft | 182 kts | 124° |
| 2026-05-04 13:24 | -34.64378 | -55.79037 | 7511 ft | 181 kts | 125° |
| 2026-05-04 13:24 | -34.65073 | -55.77790 | 7370 ft | 180 kts | 124° |
| 2026-05-04 13:24 | -34.65771 | -55.76527 | 7227 ft | 181 kts | 124° |
| 2026-05-04 13:25 | -34.67177 | -55.73978 | 6945 ft | 181 kts | 125° |
| 2026-05-04 13:25 | -34.67875 | -55.72717 | 6790 ft | 179 kts | 124° |
| 2026-05-04 13:25 | -34.68566 | -55.71458 | 6650 ft | 179 kts | 124° |
| 2026-05-04 13:25 | -34.69259 | -55.70207 | 6506 ft | 179 kts | 124° |
| 2026-05-04 13:26 | -34.69954 | -55.68949 | 6367 ft | 180 kts | 124° |
| 2026-05-04 13:26 | -34.70642 | -55.67699 | 6212 ft | 179 kts | 124° |
| 2026-05-04 13:26 | -34.71339 | -55.66433 | 6058 ft | 179 kts | 124° |
| 2026-05-04 13:26 | -34.72032 | -55.65177 | 5916 ft | 179 kts | 124° |
| 2026-05-04 13:27 | -34.72725 | -55.63919 | 5767 ft | 179 kts | 124° |
| 2026-05-04 13:27 | -34.73417 | -55.62658 | 5643 ft | 180 kts | 124° |
| 2026-05-04 13:27 | -34.74112 | -55.61392 | 5517 ft | 180 kts | 124° |
| 2026-05-04 13:27 | -34.74809 | -55.60129 | 5386 ft | 179 kts | 125° |
| 2026-05-04 13:28 | -34.75504 | -55.58875 | 5266 ft | 178 kts | 125° |
| 2026-05-04 13:28 | -34.76182 | -55.57624 | 5138 ft | 176 kts | 124° |
| 2026-05-04 13:28 | -34.76865 | -55.56383 | 5012 ft | 176 kts | 125° |
| 2026-05-04 13:28 | -34.77548 | -55.55150 | 4893 ft | 177 kts | 125° |
| 2026-05-04 13:29 | -34.78234 | -55.53898 | 4773 ft | 178 kts | 125° |
| 2026-05-04 13:29 | -34.78927 | -55.52632 | 4644 ft | 181 kts | 125° |
| 2026-05-04 13:29 | -34.79623 | -55.51363 | 4532 ft | 180 kts | 125° |
| 2026-05-04 13:29 | -34.80312 | -55.50107 | 4390 ft | 178 kts | 125° |
| 2026-05-04 13:30 | -34.80996 | -55.48859 | 4265 ft | 176 kts | 125° |
| 2026-05-04 13:30 | -34.81674 | -55.47623 | 4142 ft | 175 kts | 125° |
| 2026-05-04 13:30 | -34.82349 | -55.46390 | 4020 ft | 174 kts | 125° |
| 2026-05-04 13:30 | -34.83015 | -55.45175 | 3927 ft | 171 kts | 125° |
| 2026-05-04 13:31 | -34.83672 | -55.43975 | 3824 ft | 170 kts | 125° |
| 2026-05-04 13:31 | -34.84326 | -55.42780 | 3724 ft | 170 kts | 125° |
| 2026-05-04 13:31 | -34.84973 | -55.41597 | 3625 ft | 170 kts | 125° |
| 2026-05-04 13:31 | -34.85631 | -55.40396 | 3529 ft | 171 kts | 125° |
| 2026-05-04 13:32 | -34.86288 | -55.39193 | 3426 ft | 170 kts | 125° |
| 2026-05-04 13:32 | -34.86941 | -55.37997 | 3330 ft | 169 kts | 124° |
| 2026-05-04 13:32 | -34.87590 | -55.36809 | 3229 ft | 168 kts | 125° |
| 2026-05-04 13:32 | -34.88237 | -55.35627 | 3131 ft | 167 kts | 125° |
| 2026-05-04 13:33 | -34.88883 | -55.34443 | 3032 ft | 168 kts | 125° |
| 2026-05-04 13:33 | -34.89516 | -55.33274 | 3055 ft | 159 kts | 124° |
| 2026-05-04 13:33 | -34.90114 | -55.32148 | 3051 ft | 157 kts | 126° |
| 2026-05-04 13:33 | -34.90725 | -55.31053 | 3039 ft | 157 kts | 126° |
| 2026-05-04 13:34 | -34.91320 | -55.29953 | 3019 ft | 156 kts | 123° |
| 2026-05-04 13:34 | -34.91605 | -55.28719 | 2963 ft | 153 kts | 84° |
| 2026-05-04 13:34 | -34.91348 | -55.27472 | 2924 ft | 149 kts | 64° |
| 2026-05-04 13:34 | -34.90934 | -55.26354 | 2810 ft | 141 kts | 51° |
| 2026-05-04 13:35 | -34.90441 | -55.25359 | 2669 ft | 136 kts | 52° |
| 2026-05-04 13:35 | -34.89609 | -55.23409 | 2517 ft | 126 kts | 52° |
| 2026-05-04 13:35 | -34.89246 | -55.22433 | 2374 ft | 128 kts | 57° |
| 2026-05-04 13:36 | -34.88958 | -55.21418 | 2369 ft | 126 kts | 59° |
| 2026-05-04 13:36 | -34.88597 | -55.20471 | 2262 ft | 125 kts | 54° |
| 2026-05-04 13:36 | -34.88271 | -55.19501 | 2193 ft | 122 kts | 58° |
| 2026-05-04 13:36 | -34.87951 | -55.18598 | 1951 ft | 113 kts | 53° |
| 2026-05-04 13:37 | -34.87693 | -55.17699 | 1747 ft | 113 kts | 69° |
| 2026-05-04 13:37 | -34.87490 | -55.16787 | 1545 ft | 108 kts | 61° |
| 2026-05-04 13:37 | -34.87335 | -55.16219 | 1442 ft | 105 kts | 60° |
| 2026-05-04 13:37 | -34.87080 | -55.15400 | 1207 ft | 100 kts | 64° |
| 2026-05-04 13:38 | -34.86871 | -55.14616 | 926 ft | 92 kts | 66° |
| 2026-05-04 13:38 | -34.86695 | -55.13891 | 633 ft | 85 kts | 67° |
| 2026-05-04 13:38 | -34.86505 | -55.13203 | 456 ft | 87 kts | 64° |
| 2026-05-04 13:38 | -34.86325 | -55.12499 | 469 ft | 89 kts | 68° |
| 2026-05-04 13:39 | -34.86140 | -55.11804 | 291 ft | 86 kts | 68° |
| 2026-05-04 13:39 | -34.85958 | -55.11123 | 114 ft | 82 kts | 73° |
| 2026-05-04 13:39 | -34.85820 | -55.10580 | 96 ft | 56 kts | 72° |
| 2026-05-04 13:39 | -34.85716 | -55.10188 | 96 ft | 42 kts | 72° |
| 2026-05-04 13:40 | -34.85640 | -55.09888 | 96 ft | 34 kts | 74° |
| 2026-05-04 13:40 | -34.85582 | -55.09650 | 96 ft | 26 kts | 72° |
| 2026-05-04 13:40 | -34.85529 | -55.09465 | 96 ft | 19 kts | 76° |
| 2026-05-04 13:40 | -34.85601 | -55.09397 | 96 ft | 18 kts | 176° |
| 2026-05-04 13:41 | -34.85745 | -55.09398 | 96 ft | 23 kts | 182° |
| 2026-05-04 13:41 | -34.85914 | -55.09384 | 96 ft | 26 kts | 174° |
| 2026-05-04 13:41 | -34.86056 | -55.09380 | 97 ft | 18 kts | 186° |
| 2026-05-04 13:42 | -34.86131 | -55.09580 | 96 ft | 8 kts | 169° |
| 2026-05-04 13:42 | -34.86211 | -55.09562 | 96 ft | 14 kts | 178° |
| 2026-05-04 13:42 | -34.86311 | -55.09566 | 97 ft | 15 kts | 174° |
| 2026-05-04 13:42 | -34.86419 | -55.09582 | 97 ft | 16 kts | 194° |
| 2026-05-04 13:43 | -34.86459 | -55.09647 | 97 ft | 0 kts | 281° |